Time;durP1;ratioP1;P1;durP2;ratioP2;P2;SDS_P1;SDS_P2;PMS_P1;PMS_P2;Temp;Humidity;BMP_temperature;BMP_pressure;BME280_temperature;BME280_humidity;BME280_pressure;Samples;Min_cycle;Max_cycle;Signal;HPM_P1;HPM_P2
2022/10/16 00:01:35;;;;;;;1.87;1.77;;;;;;;;;;5052229;28;20225;-82
2022/10/16 00:04:02;;;;;;;2.00;1.90;;;;;;;;;;5043713;28;20234;-82
2022/10/16 00:06:30;;;;;;;2.00;1.90;;;;;;;;;;5051494;28;20202;-81
2022/10/16 00:08:57;;;;;;;2.00;1.90;;;;;;;;;;5050822;28;20587;-81
2022/10/16 00:11:25;;;;;;;1.67;1.40;;;;;;;;;;5051804;28;20205;-81
2022/10/16 00:13:56;;;;;;;1.73;1.60;;;;;;;;;;5051052;28;20233;-81
2022/10/16 00:16:23;;;;;;;1.40;1.40;;;;;;;;;;5051293;28;20205;-81
2022/10/16 00:18:50;;;;;;;2.33;1.60;;;;;;;;;;5050807;28;20237;-81
2022/10/16 00:21:19;;;;;;;3.23;1.67;;;;;;;;;;5047878;28;20233;-81
2022/10/16 00:23:46;;;;;;;1.57;1.47;;;;;;;;;;5052229;28;20300;-81
2022/10/16 00:26:14;;;;;;;1.90;1.80;;;;;;;;;;5051121;28;20202;-81
2022/10/16 00:28:41;;;;;;;1.87;1.63;;;;;;;;;;5050627;28;20807;-81
2022/10/16 00:31:10;;;;;;;2.40;1.50;;;;;;;;;;5051517;28;20696;-82
2022/10/16 00:33:38;;;;;;;3.10;1.63;;;;;;;;;;5051219;28;20233;-81
2022/10/16 00:36:05;;;;;;;1.70;1.60;;;;;;;;;;5051013;28;20205;-81
2022/10/16 00:38:33;;;;;;;1.40;1.30;;;;;;;;;;5050966;28;20242;-81
2022/10/16 00:41:00;;;;;;;1.27;1.27;;;;;;;;;;5041370;28;20222;-81
2022/10/16 00:43:35;;;;;;;1.40;1.30;;;;;;;;;;5031213;28;20245;-82
2022/10/16 00:46:02;;;;;;;1.40;1.30;;;;;;;;;;5041121;28;20678;-80
2022/10/16 00:48:30;;;;;;;1.90;1.17;;;;;;;;;;5050392;28;20237;-81
2022/10/16 00:50:58;;;;;;;1.10;1.10;;;;;;;;;;5051489;28;20210;-81
2022/10/16 00:53:26;;;;;;;2.63;1.93;;;;;;;;;;5050976;28;20248;-81
2022/10/16 00:55:54;;;;;;;1.30;1.20;;;;;;;;;;5051053;28;20272;-82
2022/10/16 00:58:21;;;;;;;1.00;1.00;;;;;;;;;;5048591;28;20245;-81
2022/10/16 01:00:48;;;;;;;1.47;1.20;;;;;;;;;;5057376;28;20212;-81
2022/10/16 01:03:26;;;;;;;1.20;1.20;;;;;;;;;;5062484;28;20225;-81
2022/10/16 01:05:59;;;;;;;1.13;1.03;;;;;;;;;;5049335;28;20217;-81
2022/10/16 01:08:29;;;;;;;1.13;1.10;;;;;;;;;;5050304;28;20241;-81
2022/10/16 01:10:58;;;;;;;0.87;0.87;;;;;;;;;;5051040;28;20217;-81
2022/10/16 01:13:29;;;;;;;1.00;1.00;;;;;;;;;;5050678;28;20242;-81
2022/10/16 01:15:57;;;;;;;1.20;1.20;;;;;;;;;;5050843;28;20229;-80
2022/10/16 01:18:29;;;;;;;1.10;1.10;;;;;;;;;;5050187;28;20238;-81
2022/10/16 01:21:01;;;;;;;1.00;1.00;;;;;;;;;;5051266;28;20202;-81
2022/10/16 01:23:36;;;;;;;1.03;1.00;;;;;;;;;;5050862;28;20316;-81
2022/10/16 01:26:12;;;;;;;1.30;1.23;;;;;;;;;;5050592;28;20814;-81
2022/10/16 01:28:42;;;;;;;3.60;1.30;;;;;;;;;;5050376;28;20237;-81
2022/10/16 01:31:11;;;;;;;0.90;0.90;;;;;;;;;;5051064;28;20206;-80
2022/10/16 01:33:41;;;;;;;2.00;1.00;;;;;;;;;;5050552;28;20234;-81
2022/10/16 01:36:12;;;;;;;1.10;1.10;;;;;;;;;;5050178;28;20206;-81
2022/10/16 01:38:40;;;;;;;1.00;1.00;;;;;;;;;;5050342;28;20238;-81
2022/10/16 01:41:09;;;;;;;1.30;1.10;;;;;;;;;;5053821;28;20213;-81
2022/10/16 01:43:38;;;;;;;2.00;1.20;;;;;;;;;;5054189;28;20237;-81
2022/10/16 01:46:06;;;;;;;0.90;0.90;;;;;;;;;;5054102;28;20205;-81
2022/10/16 01:48:34;;;;;;;2.53;1.10;;;;;;;;;;5054010;28;20246;-81
2022/10/16 01:51:04;;;;;;;1.47;0.93;;;;;;;;;;5054489;28;20209;-81
2022/10/16 01:53:31;;;;;;;1.33;1.20;;;;;;;;;;5053795;28;20257;-81
2022/10/16 01:55:59;;;;;;;1.00;1.00;;;;;;;;;;5054043;28;20198;-81
2022/10/16 01:58:27;;;;;;;1.27;1.23;;;;;;;;;;5053485;28;20242;-81
2022/10/16 02:00:56;;;;;;;1.20;1.10;;;;;;;;;;5054468;28;20217;-81
2022/10/16 02:03:24;;;;;;;1.30;1.13;;;;;;;;;;5053628;28;20241;-81
2022/10/16 02:05:53;;;;;;;1.00;1.00;;;;;;;;;;5053878;28;20249;-81
2022/10/16 02:08:20;;;;;;;0.80;0.80;;;;;;;;;;5053431;28;20316;-81
2022/10/16 02:10:47;;;;;;;1.50;1.10;;;;;;;;;;5054301;28;20217;-81
2022/10/16 02:13:16;;;;;;;1.07;0.97;;;;;;;;;;5053473;28;20245;-81
2022/10/16 02:15:43;;;;;;;1.43;1.00;;;;;;;;;;5053807;28;20684;-81
2022/10/16 02:18:11;;;;;;;1.33;1.30;;;;;;;;;;5053119;28;20244;-81
2022/10/16 02:20:42;;;;;;;2.53;1.20;;;;;;;;;;5054121;28;20206;-81
2022/10/16 02:23:10;;;;;;;1.53;1.43;;;;;;;;;;5053456;28;20249;-81
2022/10/16 02:25:40;;;;;;;1.80;1.70;;;;;;;;;;5054069;28;20225;-81
2022/10/16 02:28:12;;;;;;;1.67;1.50;;;;;;;;;;5052998;28;20238;-82
2022/10/16 02:30:42;;;;;;;2.70;1.67;;;;;;;;;;5054261;28;20206;-81
2022/10/16 02:33:11;;;;;;;2.83;1.87;;;;;;;;;;5053343;28;20241;-81
2022/10/16 02:35:40;;;;;;;1.63;1.53;;;;;;;;;;5053506;28;20198;-82
2022/10/16 02:38:07;;;;;;;1.83;1.73;;;;;;;;;;5052539;28;20241;-82
2022/10/16 02:40:34;;;;;;;2.00;1.90;;;;;;;;;;5053749;28;20209;-81
2022/10/16 02:43:01;;;;;;;3.27;2.03;;;;;;;;;;5053025;28;20245;-81
2022/10/16 02:45:29;;;;;;;2.70;1.90;;;;;;;;;;5053364;28;20217;-81
2022/10/16 02:47:56;;;;;;;2.50;2.30;;;;;;;;;;5052758;28;20246;-81
2022/10/16 02:50:24;;;;;;;2.30;2.10;;;;;;;;;;5053403;28;20216;-82
2022/10/16 02:52:53;;;;;;;3.87;2.40;;;;;;;;;;5051899;28;20700;-80
2022/10/16 02:55:20;;;;;;;2.70;2.53;;;;;;;;;;5052934;28;20206;-80
2022/10/16 02:57:47;;;;;;;2.70;2.50;;;;;;;;;;5052272;28;20237;-80
2022/10/16 03:00:16;;;;;;;2.77;2.57;;;;;;;;;;5053573;28;20218;-79
2022/10/16 03:02:44;;;;;;;3.40;3.10;;;;;;;;;;5052841;28;20234;-80
2022/10/16 03:05:11;;;;;;;3.23;2.93;;;;;;;;;;5053353;28;20208;-79
2022/10/16 03:07:38;;;;;;;4.07;3.77;;;;;;;;;;5051881;28;20238;-79
2022/10/16 03:10:07;;;;;;;3.87;3.57;;;;;;;;;;5052959;28;20202;-80
2022/10/16 03:12:34;;;;;;;5.90;4.07;;;;;;;;;;5052564;28;20609;-80
2022/10/16 03:15:02;;;;;;;4.70;4.30;;;;;;;;;;5052986;28;20202;-80
2022/10/16 03:17:29;;;;;;;6.30;4.00;;;;;;;;;;5051657;28;20234;-80
2022/10/16 03:19:56;;;;;;;4.90;4.50;;;;;;;;;;5052918;28;20277;-80
2022/10/16 03:22:23;;;;;;;4.73;4.23;;;;;;;;;;5052442;28;20234;-80
2022/10/16 03:24:50;;;;;;;5.63;5.10;;;;;;;;;;5052915;28;20217;-80
2022/10/16 03:27:18;;;;;;;5.70;5.20;;;;;;;;;;5051509;28;20257;-80
2022/10/16 03:29:46;;;;;;;6.20;5.50;;;;;;;;;;5052582;28;20206;-80
2022/10/16 03:32:13;;;;;;;5.80;5.37;;;;;;;;;;5052100;28;20241;-80
2022/10/16 03:34:40;;;;;;;6.47;5.87;;;;;;;;;;5052602;28;20217;-80
2022/10/16 03:37:07;;;;;;;7.00;6.00;;;;;;;;;;5051533;28;20226;-80
2022/10/16 03:39:34;;;;;;;7.00;6.30;;;;;;;;;;5052320;28;20213;-80
2022/10/16 03:42:01;;;;;;;7.13;6.37;;;;;;;;;;5051919;28;20236;-80
2022/10/16 03:44:29;;;;;;;7.63;6.93;;;;;;;;;;5052487;28;20209;-80
2022/10/16 03:46:56;;;;;;;7.23;6.53;;;;;;;;;;5051485;28;20221;-81
2022/10/16 03:49:23;;;;;;;7.63;6.70;;;;;;;;;;5052231;28;20210;-80
2022/10/16 03:51:50;;;;;;;7.50;6.13;;;;;;;;;;5052568;28;20206;-80
2022/10/16 03:54:17;;;;;;;6.47;5.93;;;;;;;;;;5051543;28;20240;-80
2022/10/16 03:56:44;;;;;;;7.07;6.40;;;;;;;;;;5051892;28;20202;-81
2022/10/16 03:59:11;;;;;;;7.20;6.60;;;;;;;;;;5051330;28;20892;-81
2022/10/16 04:01:40;;;;;;;9.30;6.40;;;;;;;;;;5052245;28;20210;-81
2022/10/16 04:04:07;;;;;;;7.80;5.90;;;;;;;;;;5051096;28;20234;-80
2022/10/16 04:06:34;;;;;;;7.90;7.10;;;;;;;;;;5051430;28;20201;-80
2022/10/16 04:09:01;;;;;;;7.00;6.40;;;;;;;;;;5051080;28;20234;-80
2022/10/16 04:11:28;;;;;;;7.67;6.93;;;;;;;;;;5051958;28;20194;-81
2022/10/16 04:13:55;;;;;;;8.93;6.97;;;;;;;;;;5051499;28;20225;-80
2022/10/16 04:16:22;;;;;;;8.33;7.30;;;;;;;;;;5050984;28;20198;-80
2022/10/16 04:18:51;;;;;;;8.53;7.73;;;;;;;;;;5051048;28;20694;-80
2022/10/16 04:21:18;;;;;;;9.87;7.27;;;;;;;;;;5051738;28;20214;-81
2022/10/16 04:23:45;;;;;;;9.40;6.80;;;;;;;;;;5051074;28;20252;-80
2022/10/16 04:26:12;;;;;;;7.47;6.73;;;;;;;;;;5051221;28;20202;-81
2022/10/16 04:28:39;;;;;;;10.93;5.90;;;;;;;;;;5050579;28;20234;-81
2022/10/16 04:31:07;;;;;;;6.27;5.67;;;;;;;;;;5051651;28;20225;-80
2022/10/16 04:33:34;;;;;;;6.47;5.90;;;;;;;;;;5050995;28;20729;-81
2022/10/16 04:36:03;;;;;;;6.60;6.00;;;;;;;;;;5051458;28;20204;-81
2022/10/16 04:38:30;;;;;;;7.27;6.07;;;;;;;;;;5049724;28;20260;-81
2022/10/16 04:40:57;;;;;;;6.43;5.90;;;;;;;;;;5051471;28;20210;-80
2022/10/16 04:43:25;;;;;;;7.10;6.40;;;;;;;;;;5050922;28;20238;-81
2022/10/16 04:45:52;;;;;;;7.03;6.27;;;;;;;;;;5051295;28;20271;-81
2022/10/16 04:48:19;;;;;;;6.93;6.33;;;;;;;;;;5050782;28;20237;-81
2022/10/16 04:50:46;;;;;;;6.30;5.73;;;;;;;;;;5051571;28;20209;-81
2022/10/16 04:53:14;;;;;;;6.97;6.30;;;;;;;;;;5050930;28;20241;-81
2022/10/16 04:55:43;;;;;;;6.83;6.23;;;;;;;;;;5051051;28;20201;-81
2022/10/16 04:58:10;;;;;;;7.13;6.40;;;;;;;;;;5079328;23;20680;-78
2022/10/16 05:00:38;;;;;;;7.93;6.27;;;;;;;;;;5071480;28;20587;-78
2022/10/16 05:03:07;;;;;;;7.00;6.07;;;;;;;;;;5070983;28;20324;-78
2022/10/16 05:05:34;;;;;;;6.03;5.53;;;;;;;;;;5071512;28;20293;-78
2022/10/16 05:08:01;;;;;;;8.97;5.93;;;;;;;;;;5070964;28;20615;-78
2022/10/16 05:10:30;;;;;;;8.10;5.90;;;;;;;;;;5071402;28;20197;-78
2022/10/16 05:12:57;;;;;;;6.07;5.57;;;;;;;;;;5070808;28;20229;-78
2022/10/16 05:15:25;;;;;;;7.47;6.77;;;;;;;;;;5073244;28;20675;-78
2022/10/16 05:17:54;;;;;;;6.30;5.80;;;;;;;;;;5072767;28;20264;-78
2022/10/16 05:20:21;;;;;;;6.60;5.10;;;;;;;;;;5075261;28;20213;-78
2022/10/16 05:22:48;;;;;;;6.00;5.50;;;;;;;;;;5074709;28;20237;-78
2022/10/16 05:25:15;;;;;;;5.20;4.80;;;;;;;;;;5075398;28;20201;-78
2022/10/16 05:27:43;;;;;;;6.60;5.40;;;;;;;;;;5074491;28;20228;-78
2022/10/16 05:30:11;;;;;;;6.40;5.20;;;;;;;;;;5074949;28;20212;-78
2022/10/16 05:32:38;;;;;;;6.07;4.97;;;;;;;;;;5074431;28;20225;-78
2022/10/16 05:35:05;;;;;;;5.13;4.73;;;;;;;;;;5075239;28;20202;-78
2022/10/16 05:37:32;;;;;;;6.83;5.33;;;;;;;;;;5074207;28;20224;-78
2022/10/16 05:40:00;;;;;;;6.03;5.00;;;;;;;;;;5075079;28;20209;-78
2022/10/16 05:42:27;;;;;;;5.87;4.70;;;;;;;;;;5074673;28;20236;-79
2022/10/16 05:44:55;;;;;;;5.77;5.27;;;;;;;;;;5074995;28;20209;-78
2022/10/16 05:47:22;;;;;;;5.70;5.20;;;;;;;;;;5074408;28;20259;-78
2022/10/16 05:49:49;;;;;;;6.43;5.43;;;;;;;;;;5074763;28;20225;-78
2022/10/16 05:52:17;;;;;;;5.93;5.43;;;;;;;;;;5074285;28;20236;-78
2022/10/16 05:54:44;;;;;;;5.80;5.20;;;;;;;;;;5074633;28;20614;-78
2022/10/16 05:57:11;;;;;;;5.40;4.90;;;;;;;;;;5074240;28;20205;-79
2022/10/16 05:59:38;;;;;;;5.77;5.30;;;;;;;;;;5074275;28;20230;-78
2022/10/16 06:02:07;;;;;;;5.47;4.97;;;;;;;;;;5073862;28;20227;-78
2022/10/16 06:04:34;;;;;;;4.97;4.57;;;;;;;;;;5074249;28;20705;-78
2022/10/16 06:07:01;;;;;;;5.33;4.83;;;;;;;;;;5073797;28;20205;-77
2022/10/16 06:09:28;;;;;;;6.13;5.60;;;;;;;;;;5074232;28;20237;-77
2022/10/16 06:11:56;;;;;;;7.57;5.63;;;;;;;;;;5073842;28;20201;-78
2022/10/16 06:14:23;;;;;;;12.60;6.00;;;;;;;;;;5074243;28;20740;-77
2022/10/16 06:16:50;;;;;;;5.90;5.40;;;;;;;;;;5074304;28;20198;-77
2022/10/16 06:19:18;;;;;;;6.57;5.90;;;;;;;;;;5073221;28;20265;-77
2022/10/16 06:21:46;;;;;;;7.40;5.67;;;;;;;;;;5074124;28;20205;-77
2022/10/16 06:24:13;;;;;;;6.73;6.13;;;;;;;;;;5073532;28;20769;-77
2022/10/16 06:26:40;;;;;;;7.20;6.30;;;;;;;;;;5073763;28;20197;-77
2022/10/16 06:29:07;;;;;;;6.87;6.13;;;;;;;;;;5073112;28;20244;-77
2022/10/16 06:31:34;;;;;;;6.80;6.07;;;;;;;;;;5074067;28;20217;-77
2022/10/16 06:34:01;;;;;;;6.70;6.07;;;;;;;;;;5073537;28;20229;-77
2022/10/16 06:36:30;;;;;;;6.57;5.97;;;;;;;;;;5074245;28;20205;-77
2022/10/16 06:38:57;;;;;;;7.80;6.97;;;;;;;;;;5073189;28;20234;-77
2022/10/16 06:41:24;;;;;;;7.23;6.60;;;;;;;;;;5074122;28;20198;-77
2022/10/16 06:43:52;;;;;;;7.40;6.33;;;;;;;;;;5072495;28;20225;-77
2022/10/16 06:46:20;;;;;;;5.77;5.27;;;;;;;;;;5072357;28;20197;-77
2022/10/16 06:48:47;;;;;;;9.97;5.13;;;;;;;;;;5058139;28;20236;-77
2022/10/16 06:51:16;;;;;;;5.20;4.73;;;;;;;;;;5073104;28;20206;-77
2022/10/16 06:53:46;;;;;;;5.37;4.87;;;;;;;;;;5073176;28;20225;-77
2022/10/16 06:56:14;;;;;;;7.13;4.43;;;;;;;;;;5073346;28;20971;-77
2022/10/16 06:58:41;;;;;;;5.83;5.30;;;;;;;;;;5072624;28;20240;-77
2022/10/16 07:01:09;;;;;;;7.10;5.43;;;;;;;;;;5073400;28;20198;-77
2022/10/16 07:03:38;;;;;;;6.90;6.20;;;;;;;;;;5062027;28;20313;-77
2022/10/16 07:06:05;;;;;;;6.17;5.27;;;;;;;;;;5071742;28;20202;-77
2022/10/16 07:08:33;;;;;;;7.07;5.50;;;;;;;;;;5072412;28;20236;-76
2022/10/16 07:11:02;;;;;;;7.30;6.10;;;;;;;;;;5072745;28;20205;-77
2022/10/16 07:13:29;;;;;;;9.03;6.87;;;;;;;;;;5071870;28;20232;-77
2022/10/16 07:15:56;;;;;;;5.83;5.23;;;;;;;;;;5073084;28;20201;-77
2022/10/16 07:18:26;;;;;;;5.63;4.53;;;;;;;;;;5072227;28;20244;-78
2022/10/16 07:20:54;;;;;;;4.10;3.80;;;;;;;;;;5072883;28;20722;-79
2022/10/16 07:23:21;;;;;;;3.83;3.53;;;;;;;;;;5072291;28;20315;-79
2022/10/16 07:25:55;;;;;;;4.20;3.90;;;;;;;;;;5072887;28;20205;-78
2022/10/16 07:28:24;;;;;;;4.30;3.97;;;;;;;;;;5066740;28;20241;-78
2022/10/16 07:30:51;;;;;;;5.80;5.17;;;;;;;;;;5072321;28;20201;-79
2022/10/16 07:33:18;;;;;;;5.97;5.37;;;;;;;;;;5071622;28;20709;-79
2022/10/16 07:35:50;;;;;;;4.93;4.13;;;;;;;;;;5072480;28;20201;-79
2022/10/16 07:38:17;;;;;;;9.00;4.10;;;;;;;;;;5071206;28;20239;-77
2022/10/16 07:40:44;;;;;;;5.67;4.10;;;;;;;;;;5052821;28;20674;-79
2022/10/16 07:43:11;;;;;;;4.20;3.80;;;;;;;;;;5052357;28;20241;-79
2022/10/16 07:45:40;;;;;;;4.27;3.73;;;;;;;;;;5065323;28;20669;-79
2022/10/16 07:48:07;;;;;;;5.93;3.77;;;;;;;;;;5071610;28;20233;-79
2022/10/16 07:50:34;;;;;;;4.17;3.77;;;;;;;;;;5068499;28;20670;-79
2022/10/16 07:53:01;;;;;;;4.07;3.57;;;;;;;;;;5052007;28;20692;-79
2022/10/16 07:55:28;;;;;;;4.43;4.03;;;;;;;;;;5052581;28;20679;-79
2022/10/16 07:57:56;;;;;;;6.60;4.47;;;;;;;;;;5051615;28;20713;-77
2022/10/16 08:00:23;;;;;;;5.80;4.03;;;;;;;;;;5061262;28;20904;-79
2022/10/16 08:02:51;;;;;;;4.73;3.60;;;;;;;;;;5071770;28;20612;-79
2022/10/16 08:05:18;;;;;;;7.70;3.60;;;;;;;;;;5072074;28;20229;-79
2022/10/16 08:07:49;;;;;;;3.63;3.20;;;;;;;;;;5071308;28;20247;-79
2022/10/16 08:10:17;;;;;;;5.60;3.13;;;;;;;;;;5072105;28;20178;-79
2022/10/16 08:12:45;;;;;;;3.83;3.37;;;;;;;;;;5071782;28;20237;-79
2022/10/16 08:15:12;;;;;;;2.93;2.63;;;;;;;;;;5071992;28;20289;-78
2022/10/16 08:17:39;;;;;;;3.27;2.97;;;;;;;;;;5071314;28;20604;-79
2022/10/16 08:20:08;;;;;;;3.77;3.00;;;;;;;;;;5071172;28;20201;-79
2022/10/16 08:22:35;;;;;;;5.47;3.17;;;;;;;;;;5071550;28;20225;-79
2022/10/16 08:25:02;;;;;;;4.23;2.90;;;;;;;;;;5071547;28;20221;-79
2022/10/16 08:27:32;;;;;;;3.53;2.63;;;;;;;;;;5071389;28;20236;-81
2022/10/16 08:29:59;;;;;;;2.87;2.67;;;;;;;;;;5071869;28;20205;-79
2022/10/16 08:32:26;;;;;;;2.90;2.70;;;;;;;;;;5071387;28;20332;-79
2022/10/16 08:34:53;;;;;;;4.97;2.70;;;;;;;;;;5071657;28;20212;-79
2022/10/16 08:37:22;;;;;;;3.10;2.83;;;;;;;;;;5071189;28;20226;-79
2022/10/16 08:39:49;;;;;;;3.40;3.07;;;;;;;;;;5071549;28;20727;-79
2022/10/16 08:42:31;;;;;;;4.80;3.30;;;;;;;;;;5069415;28;20787;-78
2022/10/16 08:45:07;;;;;;;4.17;3.10;;;;;;;;;;5070403;28;20221;-78
2022/10/16 08:47:41;;;;;;;3.87;3.17;;;;;;;;;;5069257;28;20703;-80
2022/10/16 08:50:10;;;;;;;4.23;3.40;;;;;;;;;;5071579;28;20219;-81
2022/10/16 08:52:41;;;;;;;8.70;4.10;;;;;;;;;;5071045;28;20320;-81
2022/10/16 08:55:16;;;;;;;6.90;4.07;;;;;;;;;;5071378;28;20626;-81
2022/10/16 08:57:43;;;;;;;3.80;3.40;;;;;;;;;;5070928;28;20238;-80
2022/10/16 09:00:15;;;;;;;5.07;3.30;;;;;;;;;;5071786;28;20545;-79
2022/10/16 09:02:45;;;;;;;3.37;3.00;;;;;;;;;;5071056;28;20302;-77
2022/10/16 09:05:24;;;;;;;5.63;3.83;;;;;;;;;;5066514;28;20232;-78
2022/10/16 09:07:56;;;;;;;6.37;3.43;;;;;;;;;;5069281;28;20244;-79
2022/10/16 09:10:27;;;;;;;3.80;3.00;;;;;;;;;;5070753;28;20665;-78
2022/10/16 09:12:57;;;;;;;2.80;2.60;;;;;;;;;;5070259;28;20720;-78
2022/10/16 09:15:30;;;;;;;4.97;2.50;;;;;;;;;;5069237;28;20210;-78
2022/10/16 09:18:01;;;;;;;3.80;2.40;;;;;;;;;;5069048;28;20241;-79
2022/10/16 09:20:31;;;;;;;2.70;2.40;;;;;;;;;;5070899;28;20205;-80
2022/10/16 09:23:10;;;;;;;3.90;2.60;;;;;;;;;;5069984;28;20221;-79
2022/10/16 09:25:37;;;;;;;2.43;2.00;;;;;;;;;;5070359;28;20212;-80
2022/10/16 09:28:04;;;;;;;3.90;2.60;;;;;;;;;;5068878;28;20237;-80
2022/10/16 09:30:31;;;;;;;5.60;3.10;;;;;;;;;;5069983;28;20205;-79
2022/10/16 09:32:59;;;;;;;2.90;2.60;;;;;;;;;;5070136;28;20229;-79
2022/10/16 09:35:32;;;;;;;3.63;2.63;;;;;;;;;;5070637;28;20202;-79
2022/10/16 09:38:01;;;;;;;3.13;2.83;;;;;;;;;;5069748;28;20240;-80
2022/10/16 09:40:30;;;;;;;6.30;3.53;;;;;;;;;;5070614;28;20205;-79
2022/10/16 09:42:59;;;;;;;9.20;4.87;;;;;;;;;;5070167;28;20236;-79
2022/10/16 09:45:26;;;;;;;3.83;3.13;;;;;;;;;;5070326;28;20241;-78
2022/10/16 09:47:53;;;;;;;5.50;3.20;;;;;;;;;;5069815;28;20244;-78
2022/10/16 09:50:26;;;;;;;3.03;2.70;;;;;;;;;;5070348;28;20209;-78
2022/10/16 09:52:53;;;;;;;4.97;2.70;;;;;;;;;;5069040;28;20237;-78
2022/10/16 09:55:22;;;;;;;2.80;2.57;;;;;;;;;;5070520;28;20197;-78
2022/10/16 09:57:52;;;;;;;4.97;3.00;;;;;;;;;;5069480;28;20704;-79
2022/10/16 10:00:19;;;;;;;4.57;4.17;;;;;;;;;;5070451;28;20209;-79
2022/10/16 10:02:47;;;;;;;3.77;3.10;;;;;;;;;;5072505;28;20230;-78
2022/10/16 10:05:22;;;;;;;2.40;2.20;;;;;;;;;;5072402;28;20259;-78
2022/10/16 10:07:55;;;;;;;4.67;3.30;;;;;;;;;;5072054;28;20235;-78
2022/10/16 10:10:24;;;;;;;5.17;2.10;;;;;;;;;;5072376;28;20203;-78
2022/10/16 10:12:52;;;;;;;2.77;2.13;;;;;;;;;;5073064;28;20724;-78
2022/10/16 10:15:21;;;;;;;3.97;2.43;;;;;;;;;;5073647;28;20209;-78
2022/10/16 10:17:50;;;;;;;2.67;2.47;;;;;;;;;;5072854;28;20286;-78
2022/10/16 10:20:23;;;;;;;4.57;2.50;;;;;;;;;;5073189;28;20686;-78
2022/10/16 10:22:52;;;;;;;4.30;2.60;;;;;;;;;;5072994;28;20244;-78
2022/10/16 10:25:24;;;;;;;1.90;1.80;;;;;;;;;;5073045;28;20233;-78
2022/10/16 10:27:58;;;;;;;2.55;2.35;;;;;;;;;;5072748;28;20244;-77
2022/10/16 10:30:26;;;;;;;2.70;1.63;;;;;;;;;;5072865;28;20250;-78
2022/10/16 10:33:00;;;;;;;2.85;1.45;;;;;;;;;;5072902;28;20237;-80
2022/10/16 10:35:30;;;;;;;2.65;1.85;;;;;;;;;;5073329;28;20205;-78
2022/10/16 10:38:09;;;;;;;2.13;1.85;;;;;;;;;;5072554;28;20237;-78
2022/10/16 10:40:41;;;;;;;1.90;1.80;;;;;;;;;;5076303;28;20676;-78
2022/10/16 10:43:14;;;;;;;1.70;1.60;;;;;;;;;;5078765;28;20316;-78
2022/10/16 10:45:43;;;;;;;1.67;1.52;;;;;;;;;;5072874;28;20716;-78
2022/10/16 10:48:18;;;;;;;1.73;1.63;;;;;;;;;;5072203;28;20256;-78
2022/10/16 10:50:50;;;;;;;2.15;1.60;;;;;;;;;;5070910;28;20197;-75
2022/10/16 10:53:24;;;;;;;1.92;1.55;;;;;;;;;;5070288;28;20240;-75
2022/10/16 10:55:55;;;;;;;2.88;1.60;;;;;;;;;;5071940;28;20204;-75
2022/10/16 10:58:33;;;;;;;2.42;1.25;;;;;;;;;;5071441;28;20237;-75
2022/10/16 11:01:04;;;;;;;1.65;1.55;;;;;;;;;;5072309;28;20212;-75
2022/10/16 11:03:36;;;;;;;2.13;1.42;;;;;;;;;;5071780;28;20238;-75
2022/10/16 11:06:06;;;;;;;2.97;1.60;;;;;;;;;;5071674;28;20229;-75
2022/10/16 11:08:35;;;;;;;1.63;1.52;;;;;;;;;;5073051;28;20260;-76
2022/10/16 11:11:04;;;;;;;1.40;1.38;;;;;;;;;;5074355;28;20614;-75
2022/10/16 11:13:35;;;;;;;1.85;1.58;;;;;;;;;;5074615;28;20264;-75
2022/10/16 11:16:05;;;;;;;4.85;1.85;;;;;;;;;;5071725;28;20673;-75
2022/10/16 11:18:39;;;;;;;1.20;1.20;;;;;;;;;;5071308;28;20241;-75
2022/10/16 11:21:09;;;;;;;1.60;1.50;;;;;;;;;;5071969;28;20223;-75
2022/10/16 11:23:39;;;;;;;5.07;1.98;;;;;;;;;;5071479;28;20264;-76
2022/10/16 11:26:13;;;;;;;4.03;1.83;;;;;;;;;;5071577;28;20225;-77
2022/10/16 11:28:44;;;;;;;1.55;1.40;;;;;;;;;;5071020;28;20244;-79
2022/10/16 11:31:15;;;;;;;1.98;1.52;;;;;;;;;;5071924;28;20210;-77
2022/10/16 11:33:44;;;;;;;2.05;1.35;;;;;;;;;;5071590;28;20240;-77
2022/10/16 11:36:21;;;;;;;2.72;1.50;;;;;;;;;;5071835;28;20197;-77
2022/10/16 11:39:03;;;;;;;2.45;1.63;;;;;;;;;;5076180;28;20267;-77
2022/10/16 11:41:34;;;;;;;2.58;1.65;;;;;;;;;;5071808;28;20213;-77
2022/10/16 11:44:14;;;;;;;2.50;2.30;;;;;;;;;;5069345;28;20704;-77
2022/10/16 11:46:42;;;;;;;1.67;1.58;;;;;;;;;;5069262;28;20209;-78
2022/10/16 11:49:12;;;;;;;2.25;1.50;;;;;;;;;;5070378;28;20728;-77
2022/10/16 11:51:40;;;;;;;4.07;1.90;;;;;;;;;;5071488;28;20205;-77
2022/10/16 11:54:12;;;;;;;5.20;1.45;;;;;;;;;;5070475;28;20255;-77
2022/10/16 11:56:41;;;;;;;1.40;1.30;;;;;;;;;;5071514;28;20658;-78
2022/10/16 11:59:13;;;;;;;1.00;1.00;;;;;;;;;;5070016;28;20233;-77
2022/10/16 12:01:42;;;;;;;1.95;1.80;;;;;;;;;;5071582;28;20205;-76
2022/10/16 12:04:18;;;;;;;2.20;1.30;;;;;;;;;;5070863;28;20256;-78
2022/10/16 12:06:48;;;;;;;0.88;0.88;;;;;;;;;;5071512;28;20228;-78
2022/10/16 12:09:17;;;;;;;1.45;1.00;;;;;;;;;;5070502;28;20320;-77
2022/10/16 12:11:44;;;;;;;1.65;1.35;;;;;;;;;;5071132;28;20208;-78
2022/10/16 12:14:36;;;;;;;2.08;1.40;;;;;;;;;;5069689;28;20224;-78
2022/10/16 12:17:06;;;;;;;4.53;1.55;;;;;;;;;;5070366;28;20204;-77
2022/10/16 12:19:33;;;;;;;1.40;1.30;;;;;;;;;;5071365;28;20221;-77
2022/10/16 12:22:01;;;;;;;1.85;1.40;;;;;;;;;;5070862;28;20201;-78
2022/10/16 12:24:36;;;;;;;1.70;1.60;;;;;;;;;;5071561;28;20216;-78
2022/10/16 12:27:05;;;;;;;1.52;1.20;;;;;;;;;;5071397;28;20665;-78
2022/10/16 12:29:38;;;;;;;1.50;1.40;;;;;;;;;;5068847;28;20225;-81
2022/10/16 12:32:07;;;;;;;1.35;1.27;;;;;;;;;;5071360;28;20216;-82
2022/10/16 12:34:39;;;;;;;1.30;1.20;;;;;;;;;;5071826;28;20814;-83
2022/10/16 12:37:10;;;;;;;1.90;1.40;;;;;;;;;;5070970;28;20201;-84
2022/10/16 12:39:38;;;;;;;1.65;1.55;;;;;;;;;;5071564;28;20726;-83
2022/10/16 12:42:06;;;;;;;1.95;1.30;;;;;;;;;;5071513;28;20205;-82
2022/10/16 12:44:34;;;;;;;1.80;1.30;;;;;;;;;;5071740;28;20209;-83
2022/10/16 12:47:03;;;;;;;2.95;1.90;;;;;;;;;;5071621;28;20205;-82
2022/10/16 12:49:34;;;;;;;1.48;1.38;;;;;;;;;;5071464;28;20232;-83
2022/10/16 12:52:01;;;;;;;2.60;2.40;;;;;;;;;;5071761;28;20200;-83
2022/10/16 12:54:30;;;;;;;1.80;1.67;;;;;;;;;;5071897;28;20274;-83
2022/10/16 12:57:05;;;;;;;1.95;1.67;;;;;;;;;;5070740;28;20525;-83
2022/10/16 12:59:39;;;;;;;3.20;1.70;;;;;;;;;;5071253;28;20229;-83
2022/10/16 13:02:33;;;;;;;1.52;1.40;;;;;;;;;;5071049;28;20203;-85
2022/10/16 13:05:10;;;;;;;2.47;1.23;;;;;;;;;;5046549;28;20598;-82
2022/10/16 13:07:50;;;;;;;2.85;1.30;;;;;;;;;;5070335;28;20240;-82
2022/10/16 13:10:23;;;;;;;3.15;1.60;;;;;;;;;;5070892;28;20633;-81
2022/10/16 13:13:11;;;;;;;1.38;1.27;;;;;;;;;;5071149;28;20237;-81
2022/10/16 13:15:48;;;;;;;1.45;1.35;;;;;;;;;;5071142;28;20284;-82
2022/10/16 13:18:17;;;;;;;1.65;1.55;;;;;;;;;;5070593;28;20237;-83
2022/10/16 13:20:54;;;;;;;1.70;1.33;;;;;;;;;;5071347;28;20201;-83
2022/10/16 13:23:26;;;;;;;1.50;1.40;;;;;;;;;;5070772;28;20315;-82
2022/10/16 13:26:00;;;;;;;2.15;1.40;;;;;;;;;;5071263;28;20210;-82
2022/10/16 13:28:29;;;;;;;1.92;1.50;;;;;;;;;;5070263;28;20245;-83
2022/10/16 13:30:58;;;;;;;1.55;1.45;;;;;;;;;;5071485;28;20202;-81
2022/10/16 13:33:29;;;;;;;2.17;1.50;;;;;;;;;;5070781;28;20229;-81
2022/10/16 13:35:58;;;;;;;1.42;1.33;;;;;;;;;;5072013;28;20208;-81
2022/10/16 13:38:26;;;;;;;1.27;1.27;;;;;;;;;;5074677;28;20344;-82
2022/10/16 13:40:55;;;;;;;3.17;1.55;;;;;;;;;;5075170;28;20212;-83
2022/10/16 13:43:23;;;;;;;2.35;1.60;;;;;;;;;;5074279;28;21004;-83
2022/10/16 13:45:54;;;;;;;1.58;1.48;;;;;;;;;;5074981;28;20236;-83
2022/10/16 13:48:22;;;;;;;1.75;1.52;;;;;;;;;;5074308;28;20245;-83
2022/10/16 13:51:01;;;;;;;1.98;1.33;;;;;;;;;;5074593;28;20202;-82
2022/10/16 13:53:28;;;;;;;1.50;1.40;;;;;;;;;;5074397;28;20240;-82
2022/10/16 13:55:55;;;;;;;4.85;1.52;;;;;;;;;;5072302;28;20205;-82
2022/10/16 13:58:22;;;;;;;2.05;1.70;;;;;;;;;;5073185;28;20983;-82
2022/10/16 14:00:56;;;;;;;2.05;1.50;;;;;;;;;;5074764;28;20598;-82
2022/10/16 14:03:24;;;;;;;2.25;1.85;;;;;;;;;;5074018;28;20285;-82
2022/10/16 14:05:53;;;;;;;2.13;1.60;;;;;;;;;;5073905;28;20225;-81
2022/10/16 14:08:21;;;;;;;2.50;1.95;;;;;;;;;;5072232;28;20245;-81
2022/10/16 14:10:49;;;;;;;3.20;1.92;;;;;;;;;;5074016;28;20205;-81
2022/10/16 14:13:18;;;;;;;2.95;1.77;;;;;;;;;;5073624;28;20237;-82
2022/10/16 14:15:48;;;;;;;4.43;2.10;;;;;;;;;;5074303;28;20276;-81
2022/10/16 14:18:20;;;;;;;2.55;1.70;;;;;;;;;;5073078;28;20241;-81
2022/10/16 14:20:47;;;;;;;1.50;1.40;;;;;;;;;;5074007;28;20208;-82
2022/10/16 14:23:23;;;;;;;1.42;1.33;;;;;;;;;;5073325;28;20236;-82
2022/10/16 14:25:50;;;;;;;2.40;2.20;;;;;;;;;;5073942;28;20225;-81
2022/10/16 14:28:18;;;;;;;3.88;2.00;;;;;;;;;;5072877;28;20237;-82
2022/10/16 14:30:53;;;;;;;8.40;3.20;;;;;;;;;;5073780;28;20666;-81
2022/10/16 14:33:22;;;;;;;2.08;1.77;;;;;;;;;;5073000;28;20881;-82
2022/10/16 14:36:00;;;;;;;1.77;1.67;;;;;;;;;;5073710;28;20205;-81
2022/10/16 14:38:29;;;;;;;2.50;2.30;;;;;;;;;;5072917;28;20233;-82
2022/10/16 14:40:58;;;;;;;4.68;2.08;;;;;;;;;;5073481;28;20201;-81
2022/10/16 14:43:31;;;;;;;3.33;1.60;;;;;;;;;;5072683;28;20739;-81
2022/10/16 14:45:58;;;;;;;1.67;1.58;;;;;;;;;;5072953;28;20712;-82
2022/10/16 14:48:25;;;;;;;1.88;1.75;;;;;;;;;;5072486;28;20245;-82
2022/10/16 14:50:53;;;;;;;1.73;1.60;;;;;;;;;;5073496;28;20206;-82
2022/10/16 14:53:20;;;;;;;1.70;1.60;;;;;;;;;;5072629;28;20233;-81
2022/10/16 14:55:49;;;;;;;1.95;1.85;;;;;;;;;;5073474;28;20205;-82